createdAt,value
2023-02-19T00:01:54.481Z,4.07
2023-02-19T00:04:24.144Z,3.00
2023-02-19T00:06:54.432Z,2.50
2023-02-19T00:09:24.060Z,2.58
2023-02-19T00:11:52.953Z,3.05
2023-02-19T00:14:22.473Z,2.90
2023-02-19T00:16:51.287Z,2.72
2023-02-19T00:19:22.245Z,2.65
2023-02-19T00:21:52.811Z,1.65
2023-02-19T00:24:24.702Z,2.83
2023-02-19T00:26:52.713Z,3.55
2023-02-19T00:29:22.676Z,2.10
2023-02-19T00:31:52.045Z,3.03
2023-02-19T00:34:20.493Z,2.40
2023-02-19T00:36:48.513Z,2.35
2023-02-19T00:39:18.604Z,2.58
2023-02-19T00:41:51.440Z,2.20
2023-02-19T00:44:31.770Z,2.30
2023-02-19T00:46:59.768Z,3.10
2023-02-19T00:49:27.725Z,2.25
2023-02-19T00:52:04.077Z,2.35
2023-02-19T00:54:32.724Z,1.75
2023-02-19T00:57:02.047Z,1.67
2023-02-19T00:59:30.725Z,2.60
2023-02-19T01:01:58.954Z,1.67
2023-02-19T01:04:26.997Z,2.78
2023-02-19T01:06:55.153Z,2.35
2023-02-19T01:09:33.458Z,2.03
2023-02-19T01:12:08.363Z,3.47
2023-02-19T01:14:37.125Z,1.90
2023-02-19T01:17:16.286Z,2.42
2023-02-19T01:19:44.317Z,2.90
2023-02-19T01:22:21.503Z,2.05
2023-02-19T01:24:49.531Z,3.13
2023-02-19T01:27:20.064Z,2.35
2023-02-19T01:29:48.072Z,3.20
2023-02-19T01:32:45.047Z,2.75
2023-02-19T01:35:13.120Z,3.50
2023-02-19T01:37:41.105Z,3.65
2023-02-19T01:40:10.181Z,2.05
2023-02-19T01:42:51.816Z,2.80
2023-02-19T01:45:30.282Z,2.53
2023-02-19T01:48:03.618Z,3.25
2023-02-19T01:50:36.877Z,2.15
2023-02-19T01:53:07.936Z,2.63
2023-02-19T01:55:36.828Z,3.60
2023-02-19T01:58:07.158Z,1.48
2023-02-19T02:00:35.825Z,3.50
2023-02-19T02:03:05.134Z,2.03
2023-02-19T02:05:43.449Z,4.05
2023-02-19T02:08:29.937Z,3.83
2023-02-19T02:11:04.775Z,3.28
2023-02-19T02:13:36.012Z,3.22
2023-02-19T02:16:29.133Z,2.33
2023-02-19T02:19:07.246Z,3.20
2023-02-19T02:21:58.054Z,2.80
2023-02-19T02:24:45.962Z,2.83
2023-02-19T02:27:29.385Z,3.58
2023-02-19T02:30:25.370Z,3.63
2023-02-19T02:33:01.450Z,3.15
2023-02-19T02:35:35.421Z,3.05
2023-02-19T02:38:31.386Z,2.65
2023-02-19T02:40:59.906Z,3.78
2023-02-19T02:43:58.774Z,2.80
2023-02-19T02:46:33.697Z,4.93
2023-02-19T02:49:06.346Z,4.53
2023-02-19T02:51:37.465Z,2.60
2023-02-19T02:54:26.433Z,1.95
2023-02-19T02:56:56.742Z,3.97
2023-02-19T02:59:27.154Z,4.82
2023-02-19T03:02:12.016Z,3.72
2023-02-19T03:05:06.389Z,2.60
2023-02-19T03:07:39.648Z,3.15
2023-02-19T03:10:11.086Z,3.22
2023-02-19T03:13:00.160Z,3.05
2023-02-19T03:15:51.708Z,3.05
2023-02-19T03:18:40.938Z,2.83
2023-02-19T03:21:22.822Z,3.30
2023-02-19T03:24:09.304Z,2.17
2023-02-19T03:26:55.524Z,3.33
2023-02-19T03:29:27.108Z,5.68
2023-02-19T03:31:58.933Z,4.97
2023-02-19T03:34:33.985Z,4.28
2023-02-19T03:37:07.856Z,3.30
2023-02-19T03:39:44.286Z,4.10
2023-02-19T03:42:26.034Z,5.95
2023-02-19T03:45:16.171Z,3.40
2023-02-19T03:47:50.307Z,3.13
2023-02-19T03:50:22.643Z,4.13
2023-02-19T03:53:00.737Z,2.60
2023-02-19T03:55:33.790Z,2.72
2023-02-19T03:58:08.625Z,7.60
2023-02-19T04:00:41.298Z,3.05
2023-02-19T04:03:17.173Z,3.42
2023-02-19T04:05:52.180Z,3.08
2023-02-19T04:08:26.707Z,3.78
2023-02-19T04:10:55.728Z,4.85
2023-02-19T04:13:28.150Z,4.53
2023-02-19T04:16:05.973Z,4.07
2023-02-19T04:18:38.775Z,4.65
2023-02-19T04:21:10.292Z,3.15
2023-02-19T04:23:44.502Z,3.03
2023-02-19T04:26:13.660Z,2.88
2023-02-19T04:28:43.702Z,2.25
2023-02-19T04:31:31.510Z,2.85
2023-02-19T04:33:59.533Z,6.10
2023-02-19T04:36:28.908Z,3.70
2023-02-19T04:38:57.033Z,3.40
2023-02-19T04:41:25.049Z,3.85
2023-02-19T04:43:53.075Z,3.00
2023-02-19T04:46:21.602Z,1.85
2023-02-19T04:48:49.665Z,3.55
2023-02-19T04:51:17.711Z,2.40
2023-02-19T04:53:47.073Z,2.97
2023-02-19T04:56:31.479Z,2.88
2023-02-19T04:58:59.702Z,2.53
2023-02-19T05:01:27.837Z,3.40
2023-02-19T05:03:55.857Z,2.65
2023-02-19T05:06:23.854Z,3.67
2023-02-19T05:08:53.180Z,2.90
2023-02-19T05:11:21.196Z,3.70
2023-02-19T05:13:49.209Z,3.55
2023-02-19T05:16:17.667Z,3.75
2023-02-19T05:18:47.169Z,4.57
2023-02-19T05:21:15.613Z,3.33
2023-02-19T05:23:43.797Z,3.95
2023-02-19T05:26:17.086Z,3.05
2023-02-19T05:28:51.163Z,3.15
2023-02-19T05:31:19.550Z,4.05
2023-02-19T05:33:51.144Z,4.55
2023-02-19T05:36:22.053Z,3.47
2023-02-19T05:38:54.047Z,2.88
2023-02-19T05:41:25.649Z,3.55
2023-02-19T05:43:54.178Z,2.83
2023-02-19T05:46:24.070Z,2.72
2023-02-19T05:48:53.957Z,3.05
2023-02-19T05:51:23.339Z,3.05
2023-02-19T05:53:51.789Z,3.42
2023-02-19T05:56:29.073Z,2.70
2023-02-19T05:58:57.486Z,2.30
2023-02-19T06:01:28.458Z,2.20
2023-02-19T06:03:57.624Z,2.65
2023-02-19T06:06:26.845Z,3.38
2023-02-19T06:08:55.485Z,2.38
2023-02-19T06:11:25.432Z,1.45
2023-02-19T06:13:56.479Z,2.72
2023-02-19T06:16:26.603Z,1.55
2023-02-19T06:18:54.667Z,3.33
2023-02-19T06:21:22.607Z,2.28
2023-02-19T06:23:50.590Z,3.58
2023-02-19T06:26:22.051Z,3.42
2023-02-19T06:28:53.408Z,3.00
2023-02-19T06:31:23.101Z,3.28
2023-02-19T06:33:51.564Z,3.30
2023-02-19T06:36:21.928Z,4.05
2023-02-19T06:38:50.298Z,2.08
2023-02-19T06:41:19.339Z,3.00
2023-02-19T06:43:47.575Z,3.42
2023-02-19T06:46:16.948Z,3.22
2023-02-19T06:48:45.988Z,1.67
2023-02-19T06:51:15.057Z,2.97
2023-02-19T06:53:43.161Z,2.28
2023-02-19T06:56:25.088Z,3.90
2023-02-19T06:58:53.337Z,3.50
2023-02-19T07:01:23.027Z,3.15
2023-02-19T07:03:53.705Z,2.85
2023-02-19T07:06:21.887Z,1.48
2023-02-19T07:08:50.116Z,3.22
2023-02-19T07:11:18.687Z,3.70
2023-02-19T07:13:56.606Z,5.60
2023-02-19T07:16:27.760Z,2.92
2023-02-19T07:18:57.953Z,3.22
2023-02-19T07:21:26.199Z,5.20
2023-02-19T07:23:54.506Z,4.13
2023-02-19T07:26:25.670Z,4.20
2023-02-19T07:29:00.593Z,5.38
2023-02-19T07:31:37.255Z,3.38
2023-02-19T07:34:05.284Z,3.75
2023-02-19T07:36:33.258Z,2.80
2023-02-19T07:39:01.488Z,4.20
2023-02-19T07:41:29.555Z,5.20
2023-02-19T07:43:57.611Z,4.03
2023-02-19T07:46:25.733Z,4.00
2023-02-19T07:48:55.183Z,3.53
2023-02-19T07:51:30.487Z,2.75
2023-02-19T07:53:58.960Z,1.85
2023-02-19T07:56:28.773Z,3.72
2023-02-19T07:58:56.795Z,3.08
2023-02-19T08:01:52.312Z,3.47
2023-02-19T08:04:21.962Z,5.78
2023-02-19T08:06:49.954Z,1.75
2023-02-19T08:09:23.981Z,3.42
2023-02-19T08:12:13.755Z,3.45
2023-02-19T08:14:43.832Z,2.55
2023-02-19T08:17:11.841Z,1.83
2023-02-19T08:19:41.331Z,2.25
2023-02-19T08:22:09.408Z,1.55
2023-02-19T08:24:41.147Z,2.33
2023-02-19T08:27:16.689Z,2.03
2023-02-19T08:29:55.742Z,1.77
2023-02-19T08:32:23.708Z,2.42
2023-02-19T08:34:53.057Z,2.65
2023-02-19T08:37:21.030Z,2.92
2023-02-19T08:39:49.009Z,3.35
2023-02-19T08:42:16.999Z,2.67
2023-02-19T08:44:44.980Z,2.63
2023-02-19T08:47:13.029Z,6.75
2023-02-19T08:49:40.990Z,2.35
2023-02-19T08:52:10.362Z,2.20
2023-02-19T08:54:38.505Z,7.25
2023-02-19T08:57:06.480Z,1.58
2023-02-19T08:59:34.465Z,1.85
2023-02-19T09:02:02.552Z,1.25
2023-02-19T09:04:37.740Z,1.35
2023-02-19T09:07:07.749Z,0.55
2023-02-19T09:09:45.463Z,2.25
2023-02-19T09:12:33.490Z,2.58
2023-02-19T09:15:01.732Z,2.13
2023-02-19T09:17:30.110Z,1.23
2023-02-19T09:20:02.180Z,0.73
2023-02-19T09:22:30.162Z,1.05
2023-02-19T09:24:59.540Z,1.20
2023-02-19T09:27:27.969Z,1.17
2023-02-19T09:30:05.847Z,1.13
2023-02-19T09:32:58.222Z,0.80
2023-02-19T09:35:26.252Z,0.95
2023-02-19T09:37:54.193Z,1.45
2023-02-19T09:40:23.817Z,1.45
2023-02-19T09:42:52.807Z,0.70
2023-02-19T09:45:24.892Z,2.50
2023-02-19T09:47:56.687Z,1.08
2023-02-19T09:50:33.765Z,1.02
2023-02-19T09:53:05.868Z,1.50
2023-02-19T09:55:36.991Z,0.80
2023-02-19T09:58:18.239Z,0.93
2023-02-19T10:00:49.774Z,0.63
2023-02-19T10:03:25.219Z,1.17
2023-02-19T10:05:54.966Z,1.38
2023-02-19T10:08:22.950Z,1.17
2023-02-19T10:10:53.762Z,0.50
2023-02-19T10:13:23.914Z,0.75
2023-02-19T10:15:55.649Z,1.38
2023-02-19T10:18:25.687Z,0.57
2023-02-19T10:20:54.537Z,0.63
2023-02-19T10:23:23.617Z,0.50
2023-02-19T10:25:57.100Z,0.75
2023-02-19T10:28:29.894Z,0.32
2023-02-19T10:31:00.419Z,0.77
2023-02-19T10:33:29.280Z,0.60
2023-02-19T10:35:59.128Z,0.47
2023-02-19T10:38:32.221Z,0.52
2023-02-19T10:41:05.991Z,0.47
2023-02-19T10:43:41.714Z,0.77
2023-02-19T10:46:17.874Z,1.58
2023-02-19T10:48:51.672Z,0.60
2023-02-19T10:51:22.926Z,0.60
2023-02-19T10:53:52.618Z,0.40
2023-02-19T10:56:27.191Z,1.90
2023-02-19T10:58:55.364Z,0.40
2023-02-19T11:01:28.068Z,1.05
2023-02-19T11:04:16.819Z,1.48
2023-02-19T11:06:45.821Z,1.27
2023-02-19T11:09:26.606Z,0.50
2023-02-19T11:11:57.854Z,0.98
2023-02-19T11:14:27.786Z,0.50
2023-02-19T11:16:58.061Z,0.55
2023-02-19T11:19:36.379Z,0.90
2023-02-19T11:22:20.185Z,0.60
2023-02-19T11:24:50.610Z,0.65
2023-02-19T11:27:22.722Z,0.40
2023-02-19T11:29:50.826Z,0.52
2023-02-19T11:32:27.723Z,0.63
2023-02-19T11:35:17.727Z,0.55
2023-02-19T11:37:57.522Z,0.60
2023-02-19T11:40:38.920Z,0.73
2023-02-19T11:43:21.231Z,0.43
2023-02-19T11:45:58.992Z,0.40
2023-02-19T11:48:46.652Z,0.43
2023-02-19T11:51:31.101Z,0.52
2023-02-19T11:54:13.213Z,0.93
2023-02-19T11:56:45.091Z,0.43
2023-02-19T11:59:20.758Z,0.55
2023-02-19T12:02:17.837Z,0.50
2023-02-19T12:05:31.450Z,0.75
2023-02-19T12:08:29.600Z,0.50
2023-02-19T12:11:26.726Z,0.95
2023-02-19T12:14:09.966Z,0.57
2023-02-19T12:16:45.647Z,0.57
2023-02-19T12:19:24.465Z,0.50
2023-02-19T12:22:12.773Z,0.38
2023-02-19T12:25:17.434Z,0.47
2023-02-19T12:27:56.787Z,0.50
2023-02-19T12:30:34.541Z,0.50
2023-02-19T12:33:30.471Z,0.50
2023-02-19T12:36:09.669Z,0.45
2023-02-19T12:38:44.836Z,0.68
2023-02-19T12:41:21.820Z,0.50
2023-02-19T12:43:56.433Z,0.40
2023-02-19T12:46:30.338Z,0.75
2023-02-19T12:49:06.069Z,0.70
2023-02-19T12:51:41.719Z,1.10
2023-02-19T12:54:15.899Z,0.40
2023-02-19T12:56:49.038Z,1.00
2023-02-19T12:59:25.163Z,0.50
2023-02-19T13:01:58.811Z,0.40
2023-02-19T13:04:36.274Z,0.50
2023-02-19T13:07:08.226Z,0.60
2023-02-19T13:09:39.201Z,0.77
2023-02-19T13:12:13.727Z,0.75
2023-02-19T13:14:44.449Z,1.00
2023-02-19T13:17:22.430Z,0.30
2023-02-19T13:19:57.569Z,0.50
2023-02-19T13:22:51.412Z,1.38
2023-02-19T13:25:20.608Z,0.60
2023-02-19T13:28:21.203Z,0.60
2023-02-19T13:31:02.768Z,0.77
2023-02-19T13:33:44.927Z,0.85
2023-02-19T13:36:17.461Z,0.30
2023-02-19T13:38:48.844Z,0.73
2023-02-19T13:41:29.513Z,0.50
2023-02-19T13:44:00.339Z,0.40
2023-02-19T13:46:39.486Z,1.13
2023-02-19T13:49:43.326Z,0.47
2023-02-19T13:52:42.951Z,0.88
2023-02-19T13:55:46.735Z,0.60
2023-02-19T13:58:52.096Z,0.95
2023-02-19T14:01:20.975Z,0.60
2023-02-19T14:03:54.757Z,1.27
2023-02-19T14:06:28.951Z,0.40
2023-02-19T14:09:00.336Z,0.50
2023-02-19T14:12:03.345Z,0.30
2023-02-19T14:14:37.653Z,0.80
2023-02-19T14:17:21.773Z,0.60
2023-02-19T14:19:53.486Z,0.68
2023-02-19T14:23:07.569Z,0.30
2023-02-19T14:25:54.830Z,0.40
2023-02-19T14:28:43.916Z,0.75
2023-02-19T14:31:33.756Z,0.65
2023-02-19T14:34:05.065Z,0.40
2023-02-19T14:36:44.037Z,0.77
2023-02-19T14:39:18.071Z,1.58
2023-02-19T14:41:51.485Z,0.88
2023-02-19T14:44:23.384Z,0.63
2023-02-19T14:46:58.711Z,0.50
2023-02-19T14:49:30.941Z,0.63
2023-02-19T14:52:01.485Z,0.82
2023-02-19T14:54:39.689Z,1.30
2023-02-19T14:57:16.830Z,0.82
2023-02-19T14:59:55.139Z,0.93
2023-02-19T15:02:25.836Z,0.90
2023-02-19T15:04:54.503Z,1.20
2023-02-19T15:07:25.534Z,2.20
2023-02-19T15:09:57.030Z,0.93
2023-02-19T15:12:29.014Z,1.00
2023-02-19T15:15:00.745Z,1.42
2023-02-19T15:17:30.696Z,0.95
2023-02-19T15:20:02.919Z,1.58
2023-02-19T15:22:32.516Z,1.27
2023-02-19T15:25:02.507Z,1.80
2023-02-19T15:27:32.865Z,1.67
2023-02-19T15:30:00.898Z,1.45
2023-02-19T15:32:29.534Z,2.17
2023-02-19T15:34:59.012Z,1.50
2023-02-19T15:37:30.358Z,1.48
2023-02-19T15:40:02.244Z,1.45
2023-02-19T15:42:34.678Z,2.55
2023-02-19T15:45:05.768Z,1.63
2023-02-19T15:47:39.154Z,2.25
2023-02-19T15:50:11.646Z,2.25
2023-02-19T15:52:47.869Z,2.00
2023-02-19T15:55:32.964Z,1.08
2023-02-19T15:58:09.615Z,1.35
2023-02-19T16:00:41.910Z,1.83
2023-02-19T16:03:18.509Z,1.05
2023-02-19T16:05:47.569Z,0.50
2023-02-19T16:08:22.111Z,2.20
2023-02-19T16:10:58.536Z,1.50
2023-02-19T16:13:30.458Z,0.82
2023-02-19T16:16:03.613Z,1.73
2023-02-19T16:18:32.088Z,0.88
2023-02-19T16:21:00.924Z,1.40
2023-02-19T16:23:28.981Z,1.90
2023-02-19T16:26:01.941Z,2.35
2023-02-19T16:28:37.625Z,0.95
2023-02-19T16:31:08.133Z,1.40
2023-02-19T16:33:39.826Z,1.73
2023-02-19T16:36:22.845Z,2.10
2023-02-19T16:39:01.722Z,1.52
2023-02-19T16:41:29.990Z,2.67
2023-02-19T16:44:06.461Z,1.23
2023-02-19T16:46:34.562Z,2.00
2023-02-19T16:49:02.500Z,2.95
2023-02-19T16:51:30.538Z,1.83
2023-02-19T16:53:58.509Z,1.73
2023-02-19T16:56:28.822Z,2.55
2023-02-19T16:58:56.768Z,4.30
2023-02-19T17:01:27.198Z,4.05
2023-02-19T17:03:59.612Z,4.25
2023-02-19T17:06:28.106Z,2.58
2023-02-19T17:08:56.065Z,8.55
2023-02-19T17:11:24.049Z,7.82
2023-02-19T17:13:52.225Z,5.97
2023-02-19T17:16:21.742Z,6.75
2023-02-19T17:18:51.942Z,11.52
2023-02-19T17:21:22.940Z,5.78
2023-02-19T17:23:51.071Z,2.75
2023-02-19T17:26:20.881Z,2.83
2023-02-19T17:28:49.156Z,1.15
2023-02-19T17:31:17.947Z,2.10
2023-02-19T17:33:46.805Z,2.38
2023-02-19T17:36:20.121Z,1.92
2023-02-19T17:38:48.192Z,3.53
2023-02-19T17:41:16.372Z,5.13
2023-02-19T17:43:44.375Z,3.03
2023-02-19T17:46:16.220Z,3.33
2023-02-19T17:48:44.242Z,2.38
2023-02-19T17:51:13.361Z,2.80
2023-02-19T17:53:43.088Z,2.75
2023-02-19T17:56:16.593Z,2.22
2023-02-19T17:58:44.570Z,1.63
2023-02-19T18:01:12.983Z,2.33
2023-02-19T18:03:41.734Z,4.85
2023-02-19T18:06:09.861Z,2.90
2023-02-19T18:08:37.811Z,2.47
2023-02-19T18:11:08.581Z,3.17
2023-02-19T18:13:36.562Z,2.25
2023-02-19T18:16:06.106Z,3.53
2023-02-19T18:18:34.144Z,4.15
2023-02-19T18:21:02.101Z,5.47
2023-02-19T18:23:30.061Z,4.38
2023-02-19T18:25:58.018Z,5.18
2023-02-19T18:28:28.195Z,4.32
2023-02-19T18:30:56.334Z,5.60
2023-02-19T18:33:24.336Z,5.00
2023-02-19T18:35:52.304Z,5.72
2023-02-19T18:38:20.836Z,5.20
2023-02-19T18:40:48.792Z,6.00
2023-02-19T18:43:16.808Z,7.88
2023-02-19T18:45:46.627Z,3.53
2023-02-19T18:48:14.617Z,4.50
2023-02-19T18:50:42.878Z,5.32
2023-02-19T18:53:11.493Z,4.90
2023-02-19T18:55:39.467Z,5.53
2023-02-19T18:58:07.694Z,7.38
2023-02-19T19:00:35.793Z,4.95
2023-02-19T19:03:06.443Z,4.60
2023-02-19T19:05:34.412Z,4.25
2023-02-19T19:08:02.433Z,3.78
2023-02-19T19:10:31.298Z,4.93
2023-02-19T19:12:59.499Z,7.80
2023-02-19T19:15:27.643Z,4.72
2023-02-19T19:17:55.923Z,10.15
2023-02-19T19:20:25.442Z,6.10
2023-02-19T19:22:54.159Z,6.40
2023-02-19T19:25:23.699Z,5.78
2023-02-19T19:27:55.634Z,3.38
2023-02-19T19:30:23.835Z,4.90
2023-02-19T19:32:53.876Z,4.32
2023-02-19T19:35:22.642Z,6.83
2023-02-19T19:37:51.967Z,6.43
2023-02-19T19:40:20.510Z,11.02
2023-02-19T19:42:51.376Z,4.65
2023-02-19T19:45:19.661Z,4.68
2023-02-19T19:47:48.692Z,4.43
2023-02-19T19:50:18.206Z,6.50
2023-02-19T19:52:46.219Z,5.10
2023-02-19T19:55:16.177Z,3.25
2023-02-19T19:57:44.387Z,4.68
2023-02-19T20:00:17.632Z,4.30
2023-02-19T20:02:46.500Z,3.55
2023-02-19T20:05:15.519Z,4.32
2023-02-19T20:07:43.534Z,4.00
2023-02-19T20:10:13.009Z,3.67
2023-02-19T20:12:47.903Z,4.18
2023-02-19T20:15:21.131Z,5.88
2023-02-19T20:17:49.414Z,4.65
2023-02-19T20:20:18.859Z,3.17
2023-02-19T20:22:46.975Z,4.72
2023-02-19T20:25:16.051Z,4.70
2023-02-19T20:28:07.490Z,3.75
2023-02-19T20:30:37.124Z,3.75
2023-02-19T20:33:05.252Z,4.00
2023-02-19T20:35:33.849Z,3.53
2023-02-19T20:38:01.848Z,3.70
2023-02-19T20:40:31.274Z,4.28
2023-02-19T20:43:00.847Z,4.47
2023-02-19T20:45:31.200Z,3.70
2023-02-19T20:47:59.218Z,3.30
2023-02-19T20:50:27.460Z,5.18
2023-02-19T20:52:55.757Z,6.13
2023-02-19T20:55:25.948Z,4.53
2023-02-19T20:57:54.151Z,3.95
2023-02-19T21:00:23.209Z,5.60
2023-02-19T21:02:52.692Z,4.90
2023-02-19T21:05:23.571Z,7.75
2023-02-19T21:07:51.745Z,9.85
2023-02-19T21:10:20.040Z,5.63
2023-02-19T21:12:48.062Z,7.10
2023-02-19T21:15:16.264Z,4.13
2023-02-19T21:17:46.638Z,3.75
2023-02-19T21:20:17.938Z,3.88
2023-02-19T21:22:46.249Z,6.97
2023-02-19T21:25:21.582Z,12.45
2023-02-19T21:27:49.555Z,9.18
2023-02-19T21:30:18.005Z,5.90
2023-02-19T21:32:48.753Z,5.53
2023-02-19T21:35:18.510Z,6.45
2023-02-19T21:37:46.624Z,8.40
2023-02-19T21:40:15.321Z,6.93
2023-02-19T21:42:43.495Z,5.47
2023-02-19T21:45:11.920Z,5.38
2023-02-19T21:47:40.154Z,5.55
2023-02-19T21:50:09.430Z,4.80
2023-02-19T21:52:39.047Z,6.07
2023-02-19T21:55:07.805Z,5.28
2023-02-19T21:57:35.796Z,5.20
2023-02-19T22:00:05.421Z,4.53
2023-02-19T22:02:33.586Z,5.38
2023-02-19T22:05:18.064Z,7.97
2023-02-19T22:07:48.556Z,7.05
2023-02-19T22:10:16.774Z,3.67
2023-02-19T22:12:44.856Z,6.40
2023-02-19T22:15:12.927Z,5.78
2023-02-19T22:17:41.065Z,6.53
2023-02-19T22:20:09.542Z,5.65
2023-02-19T22:22:44.421Z,5.47
2023-02-19T22:25:13.978Z,6.82
2023-02-19T22:27:42.327Z,7.25
2023-02-19T22:30:11.340Z,4.55
2023-02-19T22:32:41.395Z,4.88
2023-02-19T22:35:09.678Z,5.38
2023-02-19T22:37:38.870Z,5.32
2023-02-19T22:40:08.135Z,5.13
2023-02-19T22:42:38.592Z,6.03
2023-02-19T22:45:07.064Z,4.45
2023-02-19T22:47:35.004Z,3.47
2023-02-19T22:50:03.139Z,3.72
2023-02-19T22:52:31.124Z,5.00
2023-02-19T22:54:59.850Z,3.72
2023-02-19T22:57:28.722Z,5.95
2023-02-19T22:59:58.044Z,5.65
2023-02-19T23:02:25.988Z,6.32
2023-02-19T23:04:54.264Z,6.43
2023-02-19T23:07:22.240Z,4.40
2023-02-19T23:09:50.189Z,3.95
2023-02-19T23:12:18.238Z,3.22
2023-02-19T23:14:47.666Z,4.55
2023-02-19T23:17:17.010Z,2.53
2023-02-19T23:19:44.998Z,4.10
2023-02-19T23:22:13.164Z,4.35
2023-02-19T23:24:41.101Z,5.80
2023-02-19T23:27:09.113Z,3.67
2023-02-19T23:29:37.168Z,6.35
2023-02-19T23:32:05.469Z,4.45
2023-02-19T23:34:34.877Z,5.80
2023-02-19T23:37:11.750Z,6.78
2023-02-19T23:39:39.787Z,6.38
2023-02-19T23:42:07.799Z,7.88
2023-02-19T23:44:35.938Z,8.70
2023-02-19T23:47:03.891Z,8.32
2023-02-19T23:49:31.842Z,8.65
2023-02-19T23:52:01.170Z,6.72
2023-02-19T23:54:40.615Z,3.78
2023-02-19T23:57:08.692Z,4.63
2023-02-19T23:59:36.651Z,6.95
